Time,TemperatureF,DewpointF,PressureIn,WindDirection,WindDirectionDegrees,WindSpeedMPH,WindSpeedGustMPH,Humidity,HourlyPrecipIn,Conditions,Clouds,dailyrainin,SoftwareType,DateUTC
2013-09-29 13:00:00,75.1,57.2,29.97,NNE,23,3.4,3.4,54,0.00,,,0.00,WUHU216HW,2013-09-29 18:00:00,
2013-09-29 13:05:00,75.4,57.2,29.96,NNW,338,6.3,6.5,53,0.00,,,0.00,WUHU216HW,2013-09-29 18:05:00,
2013-09-29 13:10:00,75.4,57.6,29.96,North,0,4.7,6.5,54,0.00,,,0.00,WUHU216HW,2013-09-29 18:10:00,
2013-09-29 13:15:00,75.4,56.1,29.96,NNE,23,2.5,9.2,51,0.00,,,0.00,WUHU216HW,2013-09-29 18:15:00,
2013-09-29 13:20:00,75.2,55.4,29.96,North,0,7.4,9.2,50,0.00,,,0.00,WUHU216HW,2013-09-29 18:20:00,
2013-09-29 13:25:00,75.2,55.4,29.96,NNW,338,3.6,7.6,50,0.00,,,0.00,WUHU216HW,2013-09-29 18:25:00,
2013-09-29 13:30:00,75.2,55.4,29.96,NW,315,4.0,7.6,50,0.00,,,0.00,WUHU216HW,2013-09-29 18:30:00,
2013-09-29 13:35:00,75.6,56.8,29.95,NE,45,3.8,7.6,52,0.00,,,0.00,WUHU216HW,2013-09-29 18:35:00,
2013-09-29 13:40:00,75.6,56.3,29.95,NNW,338,4.7,6.9,51,0.00,,,0.00,WUHU216HW,2013-09-29 18:40:00,
2013-09-29 13:45:00,75.6,55.2,29.95,North,0,5.1,6.9,49,0.00,,,0.00,WUHU216HW,2013-09-29 18:45:00,
2013-09-29 13:50:00,75.4,56.1,29.94,NNE,23,5.1,8.1,51,0.00,,,0.00,WUHU216HW,2013-09-29 18:50:00,
2013-09-29 13:55:00,75.2,55.4,29.94,NW,315,6.0,9.2,50,0.00,,,0.00,WUHU216HW,2013-09-29 18:55:00,
2013-09-29 14:00:00,75.2,55.4,29.94,North,0,4.7,9.2,50,0.00,,,0.00,WUHU216HW,2013-09-29 19:00:00,
2013-09-29 14:05:00,75.4,56.1,29.94,NNW,338,1.3,8.3,51,0.00,,,0.00,WUHU216HW,2013-09-29 19:05:00,
2013-09-29 14:10:00,76.0,57.1,29.94,NNW,338,1.8,8.3,52,0.00,,,0.00,WUHU216HW,2013-09-29 19:10:00,
2013-09-29 14:15:00,76.3,56.4,29.93,North,0,4.0,5.8,50,0.00,,,0.00,WUHU216HW,2013-09-29 19:15:00,
2013-09-29 14:20:00,76.1,55.6,29.93,NNW,338,3.1,6.5,49,0.00,,,0.00,WUHU216HW,2013-09-29 19:20:00,
2013-09-29 14:25:00,76.1,56.3,29.92,NNW,338,3.8,6.5,50,0.00,,,0.00,WUHU216HW,2013-09-29 19:25:00,
2013-09-29 14:30:00,76.3,54.5,29.92,NNW,338,4.3,5.4,47,0.00,,,0.00,WUHU216HW,2013-09-29 19:30:00,
2013-09-29 14:35:00,76.0,54.3,29.92,NNW,338,2.9,7.8,47,0.00,,,0.00,WUHU216HW,2013-09-29 19:35:00,
2013-09-29 14:40:00,76.0,54.9,29.92,NNW,338,2.7,9.4,48,0.00,,,0.00,WUHU216HW,2013-09-29 19:40:00,
2013-09-29 14:45:00,76.0,55.4,29.91,NNW,338,4.0,9.4,49,0.00,,,0.00,WUHU216HW,2013-09-29 19:45:00,
2013-09-29 14:48:00,76.0,54.9,29.91,North,0,4.7,8.7,48,0.00,,,0.00,WUHU216HW,2013-09-29 19:48:00,
2013-09-29 14:53:00,76.0,55.4,29.91,NNW,338,3.8,7.8,49,0.00,,,0.00,WUHU216HW,2013-09-29 19:53:00,
2013-09-29 14:58:00,76.0,53.6,29.91,NNE,23,4.9,6.9,46,0.00,,,0.00,WUHU216HW,2013-09-29 19:58:00,
2013-09-29 15:03:00,75.8,54.7,29.91,WNW,293,2.2,6.9,48,0.00,,,0.00,WUHU216HW,2013-09-29 20:03:00,
2013-09-29 15:08:00,76.0,54.9,29.90,North,0,5.4,10.5,48,0.00,,,0.00,WUHU216HW,2013-09-29 20:08:00,
2013-09-29 15:13:00,76.1,55.6,29.90,NNW,338,1.8,10.5,49,0.00,,,0.00,WUHU216HW,2013-09-29 20:13:00,
2013-09-29 15:18:00,76.3,55.8,29.90,NNW,338,6.5,7.2,49,0.00,,,0.00,WUHU216HW,2013-09-29 20:18:00,
2013-09-29 15:23:00,76.3,55.8,29.90,NW,315,3.8,7.2,49,0.00,,,0.00,WUHU216HW,2013-09-29 20:23:00,
2013-09-29 15:28:00,76.5,54.1,29.90,NNW,338,4.5,6.7,46,0.00,,,0.00,WUHU216HW,2013-09-29 20:28:00,
2013-09-29 15:33:00,76.5,54.1,29.90,North,0,2.0,6.7,46,0.00,,,0.00,WUHU216HW,2013-09-29 20:33:00,
2013-09-29 15:38:00,76.3,53.4,29.89,NW,315,6.3,6.3,45,0.00,,,0.00,WUHU216HW,2013-09-29 20:38:00,
2013-09-29 15:43:00,76.3,53.4,29.90,NE,45,7.6,7.6,45,0.00,,,0.00,WUHU216HW,2013-09-29 20:43:00,
2013-09-29 15:48:00,76.0,53.0,29.89,North,0,2.9,8.1,45,0.00,,,0.00,WUHU216HW,2013-09-29 20:48:00,
2013-09-29 15:53:00,76.0,53.6,29.89,NNW,338,3.1,8.1,46,0.00,,,0.00,WUHU216HW,2013-09-29 20:53:00,
2013-09-29 15:58:00,76.1,53.2,29.89,North,0,6.3,8.1,45,0.00,,,0.00,WUHU216HW,2013-09-29 20:58:00,
2013-09-29 16:03:00,76.1,52.6,29.89,NNW,338,3.4,8.1,44,0.00,,,0.00,WUHU216HW,2013-09-29 21:03:00,
2013-09-29 16:08:00,76.3,53.4,29.89,NNW,338,3.1,7.6,45,0.00,,,0.00,WUHU216HW,2013-09-29 21:08:00,
2013-09-29 16:13:00,76.5,52.9,29.88,NNW,338,3.8,7.4,44,0.00,,,0.00,WUHU216HW,2013-09-29 21:13:00,
2013-09-29 16:18:00,76.1,52.6,29.88,NNE,23,3.8,6.9,44,0.00,,,0.00,WUHU216HW,2013-09-29 21:18:00,
2013-09-29 16:23:00,76.3,53.4,29.88,NNE,23,3.1,6.9,45,0.00,,,0.00,WUHU216HW,2013-09-29 21:23:00,
2013-09-29 16:28:00,76.3,53.4,29.88,North,0,3.6,5.8,45,0.00,,,0.00,WUHU216HW,2013-09-29 21:28:00,
2013-09-29 16:33:00,76.1,52.6,29.88,North,0,2.9,5.8,44,0.00,,,0.00,WUHU216HW,2013-09-29 21:33:00,
2013-09-29 16:38:00,76.0,52.4,29.88,NNW,338,4.7,5.4,44,0.00,,,0.00,WUHU216HW,2013-09-29 21:38:00,
2013-09-29 16:43:00,76.0,52.4,29.88,NNE,23,4.7,6.3,44,0.00,,,0.00,WUHU216HW,2013-09-29 21:43:00,
2013-09-29 16:48:00,76.0,53.0,29.88,North,0,1.8,6.7,45,0.00,,,0.00,WUHU216HW,2013-09-29 21:48:00,
2013-09-29 16:53:00,76.3,53.4,29.88,North,0,4.3,6.7,45,0.00,,,0.00,WUHU216HW,2013-09-29 21:53:00,
2013-09-29 16:58:00,76.3,53.4,29.88,NW,315,0.4,5.4,45,0.00,,,0.00,WUHU216HW,2013-09-29 21:58:00,
2013-09-29 17:03:00,76.3,52.7,29.88,NNW,338,4.0,5.4,44,0.00,,,0.00,WUHU216HW,2013-09-29 22:03:00,
2013-09-29 17:08:00,76.0,53.0,29.87,ENE,68,2.5,5.1,45,0.00,,,0.00,WUHU216HW,2013-09-29 22:08:00,
2013-09-29 17:13:00,75.4,50.7,29.88,NE,45,5.8,5.8,42,0.00,,,0.00,WUHU216HW,2013-09-29 22:13:00,
2013-09-29 17:18:00,75.2,51.1,29.87,NE,45,2.2,5.8,43,0.00,,,0.00,WUHU216HW,2013-09-29 22:18:00,
2013-09-29 17:23:00,75.1,51.0,29.87,North,0,4.5,7.6,43,0.00,,,0.00,WUHU216HW,2013-09-29 22:23:00,
2013-09-29 17:28:00,74.9,51.4,29.87,ENE,68,2.0,7.6,44,0.00,,,0.00,WUHU216HW,2013-09-29 22:28:00,
2013-09-29 17:33:00,74.7,51.3,29.87,North,0,4.7,7.6,44,0.00,,,0.00,WUHU216HW,2013-09-29 22:33:00,
2013-09-29 17:38:00,74.7,50.7,29.87,NNE,23,2.9,7.6,43,0.00,,,0.00,WUHU216HW,2013-09-29 22:38:00,
2013-09-29 17:43:00,74.3,50.3,29.87,NE,45,5.1,7.4,43,0.00,,,0.00,WUHU216HW,2013-09-29 22:43:00,
2013-09-29 17:48:00,74.2,50.1,29.86,NNE,23,4.7,7.4,43,0.00,,,0.00,WUHU216HW,2013-09-29 22:48:00,
2013-09-29 17:53:00,74.0,50.6,29.87,NNE,23,1.1,6.3,44,0.00,,,0.00,WUHU216HW,2013-09-29 22:53:00,
2013-09-29 17:58:00,73.8,50.4,29.87,ENE,68,3.6,6.3,44,0.00,,,0.00,WUHU216HW,2013-09-29 22:58:00,
2013-09-29 18:03:00,73.6,50.2,29.86,NNE,23,2.9,6.3,44,0.00,,,0.00,WUHU216HW,2013-09-29 23:03:00,
2013-09-29 18:08:00,73.4,50.7,29.86,NNE,23,3.4,6.3,45,0.00,,,0.00,WUHU216HW,2013-09-29 23:08:00,
2013-09-29 18:13:00,73.4,50.7,29.86,NNE,23,5.6,6.0,45,0.00,,,0.00,WUHU216HW,2013-09-29 23:13:00,
2013-09-29 18:18:00,73.3,51.1,29.86,NNE,23,3.4,6.5,46,0.00,,,0.00,WUHU216HW,2013-09-29 23:18:00,
2013-09-29 18:23:00,73.1,51.6,29.86,NNW,338,2.5,6.5,47,0.00,,,0.00,WUHU216HW,2013-09-29 23:23:00,
2013-09-29 18:28:00,72.9,51.4,29.86,NE,45,2.5,5.4,47,0.00,,,0.00,WUHU216HW,2013-09-29 23:28:00,
2013-09-29 18:33:00,72.5,50.5,29.86,NNE,23,2.2,5.1,46,0.00,,,0.00,WUHU216HW,2013-09-29 23:33:00,
2013-09-29 18:38:00,72.5,51.0,29.86,North,0,1.8,5.1,47,0.00,,,0.00,WUHU216HW,2013-09-29 23:38:00,
2013-09-29 18:43:00,72.4,51.5,29.86,North,0,0.7,4.7,48,0.00,,,0.00,WUHU216HW,2013-09-29 23:43:00,
2013-09-29 18:48:00,72.4,51.5,29.86,NNE,23,2.0,3.8,48,0.00,,,0.00,WUHU216HW,2013-09-29 23:48:00,
2013-09-29 18:53:00,72.2,51.3,29.86,NNW,338,2.9,3.8,48,0.00,,,0.00,WUHU216HW,2013-09-29 23:53:00,
2013-09-29 18:58:00,71.8,51.6,29.86,North,0,1.6,4.0,49,0.00,,,0.00,WUHU216HW,2013-09-29 23:58:00,
2013-09-29 19:03:00,71.6,51.4,29.86,NNW,338,0.7,4.0,49,0.00,,,0.00,WUHU216HW,2013-09-30 00:03:00,
2013-09-29 19:08:00,71.5,51.8,29.86,NNW,338,0.0,3.4,50,0.00,,,0.00,WUHU216HW,2013-09-30 00:08:00,
2013-09-29 19:13:00,71.3,52.2,29.86,NNW,338,0.0,0.7,51,0.00,,,0.00,WUHU216HW,2013-09-30 00:13:00,
2013-09-29 19:18:00,70.9,51.8,29.86,NNW,338,0.0,0.0,51,0.00,,,0.00,WUHU216HW,2013-09-30 00:18:00,
2013-09-29 19:23:00,70.6,52.0,29.86,NNW,338,0.0,0.2,52,0.00,,,0.00,WUHU216HW,2013-09-30 00:23:00,
2013-09-29 19:28:00,70.4,51.9,29.86,NNW,338,0.0,0.4,52,0.00,,,0.00,WUHU216HW,2013-09-30 00:28:00,
2013-09-29 19:33:00,70.0,52.1,29.86,NNW,338,0.0,0.4,53,0.00,,,0.00,WUHU216HW,2013-09-30 00:33:00,
2013-09-29 19:38:00,69.7,51.8,29.86,NNW,338,0.0,0.0,53,0.00,,,0.00,WUHU216HW,2013-09-30 00:38:00,
2013-09-29 19:43:00,69.3,51.4,29.86,NNW,338,0.0,0.0,53,0.00,,,0.00,WUHU216HW,2013-09-30 00:43:00,
2013-09-29 19:48:00,69.1,51.8,29.86,NNW,338,0.0,0.0,54,0.00,,,0.00,WUHU216HW,2013-09-30 00:48:00,
2013-09-29 19:53:00,68.8,51.9,29.86,NNW,338,0.0,0.0,55,0.00,,,0.00,WUHU216HW,2013-09-30 00:53:00,
2013-09-29 19:58:00,68.4,52.0,29.86,NNW,338,0.0,0.0,56,0.00,,,0.00,WUHU216HW,2013-09-30 00:58:00,
2013-09-29 20:03:00,68.2,51.8,29.86,NNW,338,0.0,0.0,56,0.00,,,0.00,WUHU216HW,2013-09-30 01:03:00,
2013-09-29 20:08:00,68.0,52.2,29.86,NNW,338,0.0,0.0,57,0.00,,,0.00,WUHU216HW,2013-09-30 01:08:00,